createdAt,value
2022-10-15T00:01:24.013Z,100707.28
2022-10-15T00:03:51.252Z,100708.13
2022-10-15T00:06:21.111Z,100712.88
2022-10-15T00:08:48.510Z,100713.13
2022-10-15T00:11:21.901Z,100703.63
2022-10-15T00:13:50.490Z,100711.88
2022-10-15T00:16:20.210Z,100706.34
2022-10-15T00:18:48.232Z,100711.47
2022-10-15T00:21:17.793Z,100712.47
2022-10-15T00:23:46.010Z,100702.06
2022-10-15T00:26:24.441Z,100703.34
2022-10-15T00:28:53.071Z,100699.78
2022-10-15T00:31:26.525Z,100703.63
2022-10-15T00:33:55.224Z,100695.81
2022-10-15T00:36:26.412Z,100698.34
2022-10-15T00:38:53.584Z,100695.09
2022-10-15T00:41:23.312Z,100707.47
2022-10-15T00:43:53.762Z,100696.84
2022-10-15T00:46:35.883Z,100704.34
2022-10-15T00:49:18.112Z,100698.09
2022-10-15T00:52:07.841Z,100696.41
2022-10-15T00:54:59.935Z,100711.44
2022-10-15T00:57:27.615Z,100717.16
2022-10-15T01:00:00.775Z,100709.97
2022-10-15T01:02:27.827Z,100712.56
2022-10-15T01:04:55.918Z,100711.41
2022-10-15T01:07:22.926Z,100712.13
2022-10-15T01:09:50.705Z,100683.38
2022-10-15T01:12:42.178Z,100704.09
2022-10-15T01:15:14.309Z,100710.97
2022-10-15T01:17:55.903Z,100710.38
2022-10-15T01:20:49.755Z,100712.66
2022-10-15T01:24:06.037Z,100705.59
2022-10-15T01:26:36.141Z,100711.28
2022-10-15T01:29:27.711Z,100714.72
2022-10-15T01:32:14.275Z,100719.84
2022-10-15T01:35:07.417Z,100718.09
2022-10-15T01:37:50.294Z,100732.75
2022-10-15T01:40:23.444Z,100723.72
2022-10-15T01:43:12.574Z,100725.38
2022-10-15T01:45:57.160Z,100747.28
2022-10-15T01:48:48.787Z,100729.34
2022-10-15T01:51:18.703Z,100729.56
2022-10-15T01:53:47.358Z,100734.47
2022-10-15T01:56:20.254Z,100729.34
2022-10-15T01:58:50.642Z,100729.97
2022-10-15T02:01:17.926Z,100734.34
2022-10-15T02:03:52.609Z,100736.25
2022-10-15T02:06:37.209Z,100733.50
2022-10-15T02:09:29.084Z,100736.66
2022-10-15T02:12:24.371Z,100730.28
2022-10-15T02:15:12.116Z,100735.38
2022-10-15T02:17:51.231Z,100744.78
2022-10-15T02:20:25.283Z,100745.28
2022-10-15T02:23:03.960Z,100739.25
2022-10-15T02:25:33.833Z,100739.78
2022-10-15T02:28:04.043Z,100739.78
2022-10-15T02:30:32.359Z,100744.56
2022-10-15T02:33:00.456Z,100745.38
2022-10-15T02:35:28.407Z,100745.38
2022-10-15T02:37:58.580Z,100746.00
2022-10-15T02:40:29.626Z,100747.66
2022-10-15T02:42:57.200Z,100743.38
2022-10-15T02:45:24.166Z,100754.56
2022-10-15T02:47:51.212Z,100753.59
2022-10-15T02:50:18.999Z,100758.00
2022-10-15T02:52:45.874Z,100760.59
2022-10-15T02:55:12.812Z,100755.59
2022-10-15T02:57:39.732Z,100761.63
2022-10-15T03:00:08.694Z,100758.91
2022-10-15T03:02:35.966Z,100762.59
2022-10-15T03:05:03.314Z,100764.25
2022-10-15T03:07:30.383Z,100764.97
2022-10-15T03:09:57.345Z,100762.69
2022-10-15T03:12:26.122Z,100762.59
2022-10-15T03:14:54.255Z,100762.38
2022-10-15T03:17:22.235Z,100762.50
2022-10-15T03:19:49.658Z,100766.34
2022-10-15T03:22:17.035Z,100764.69
2022-10-15T03:24:50.786Z,100766.44
2022-10-15T03:27:23.610Z,100764.16
2022-10-15T03:29:50.916Z,100766.44
2022-10-15T03:32:17.767Z,100755.91
2022-10-15T03:34:44.983Z,100769.44
2022-10-15T03:37:14.251Z,100762.38
2022-10-15T03:39:42.186Z,100766.13
2022-10-15T03:42:10.098Z,100760.09
2022-10-15T03:44:45.363Z,100756.13
2022-10-15T03:47:16.107Z,100757.09
2022-10-15T03:49:47.827Z,100764.44
2022-10-15T03:52:16.048Z,100763.41
2022-10-15T03:54:43.895Z,100771.44
2022-10-15T03:57:14.462Z,100764.16
2022-10-15T03:59:59.978Z,100769.91
2022-10-15T04:02:31.773Z,100766.34
2022-10-15T04:04:59.106Z,100771.34
2022-10-15T04:07:26.715Z,100767.59
2022-10-15T04:09:53.642Z,100772.25
2022-10-15T04:12:25.400Z,100773.72
2022-10-15T04:14:52.660Z,100774.34
2022-10-15T04:17:19.714Z,100779.44
2022-10-15T04:19:46.851Z,100779.25
2022-10-15T04:22:15.278Z,100772.16
2022-10-15T04:24:47.637Z,100779.78
2022-10-15T04:27:25.251Z,100786.63
2022-10-15T04:29:52.303Z,100777.16
2022-10-15T04:32:19.716Z,100789.34
2022-10-15T04:34:48.184Z,100783.81
2022-10-15T04:37:16.775Z,100782.69
2022-10-15T04:39:43.763Z,100779.09
2022-10-15T04:42:13.485Z,100782.69
2022-10-15T04:44:40.743Z,100782.47
2022-10-15T04:47:07.689Z,100788.28
2022-10-15T04:49:42.801Z,100793.53
2022-10-15T04:52:26.774Z,100787.03
2022-10-15T04:55:04.901Z,100792.47
2022-10-15T04:57:32.023Z,100792.25
2022-10-15T04:59:59.151Z,100787.78
2022-10-15T05:02:33.279Z,100794.09
2022-10-15T05:05:23.553Z,100793.91
2022-10-15T05:08:01.129Z,100794.84
2022-10-15T05:10:29.376Z,100800.25
2022-10-15T05:12:58.105Z,100802.75
2022-10-15T05:15:31.096Z,100800.16
2022-10-15T05:17:58.103Z,100795.53
2022-10-15T05:20:32.586Z,100802.22
2022-10-15T05:22:59.573Z,100797.84
2022-10-15T05:25:31.472Z,100798.19
2022-10-15T05:27:58.992Z,100803.69
2022-10-15T05:30:25.965Z,100792.81
2022-10-15T05:32:55.033Z,100804.19
2022-10-15T05:35:23.482Z,100799.50
2022-10-15T05:37:58.633Z,100793.81
2022-10-15T05:40:25.704Z,100801.31
2022-10-15T05:43:07.332Z,100801.94
2022-10-15T05:45:34.312Z,100805.38
2022-10-15T05:48:06.434Z,100814.88
2022-10-15T05:50:34.616Z,100809.69
2022-10-15T05:53:03.792Z,100810.75
2022-10-15T05:55:44.433Z,100804.66
2022-10-15T05:58:11.589Z,100807.66
2022-10-15T06:00:39.756Z,100816.91
2022-10-15T06:03:06.701Z,100809.63
2022-10-15T06:05:33.830Z,100810.34
2022-10-15T06:08:00.813Z,100816.66
2022-10-15T06:10:28.656Z,100816.66
2022-10-15T06:12:55.638Z,100822.88
2022-10-15T06:15:22.700Z,100814.94
2022-10-15T06:17:53.942Z,100801.50
2022-10-15T06:20:21.029Z,100812.44
2022-10-15T06:22:47.946Z,100820.03
2022-10-15T06:25:15.007Z,100818.47
2022-10-15T06:27:41.918Z,100816.22
2022-10-15T06:30:09.423Z,100813.97
2022-10-15T06:32:36.704Z,100814.53
2022-10-15T06:35:03.798Z,100817.81
2022-10-15T06:37:33.587Z,100808.78
2022-10-15T06:40:00.922Z,100820.63
2022-10-15T06:42:27.820Z,100815.91
2022-10-15T06:44:55.781Z,100808.16
2022-10-15T06:47:23.059Z,100820.72
2022-10-15T06:49:50.286Z,100825.00
2022-10-15T06:52:17.255Z,100825.63
2022-10-15T06:54:44.219Z,100820.91
2022-10-15T06:57:11.201Z,100825.63
2022-10-15T06:59:41.206Z,100826.56
2022-10-15T07:02:11.824Z,100829.97
2022-10-15T07:04:38.743Z,100825.19
2022-10-15T07:07:06.054Z,100823.69
2022-10-15T07:09:34.432Z,100833.06
2022-10-15T07:12:01.415Z,100834.03
2022-10-15T07:14:29.552Z,100835.72
2022-10-15T07:16:56.465Z,100833.13
2022-10-15T07:19:23.428Z,100833.66
2022-10-15T07:21:50.805Z,100834.38
2022-10-15T07:24:18.223Z,100835.88
2022-10-15T07:26:47.589Z,100839.59
2022-10-15T07:29:14.543Z,100834.84
2022-10-15T07:31:41.579Z,100841.25
2022-10-15T07:34:08.485Z,100842.09
2022-10-15T07:36:35.380Z,100840.31
2022-10-15T07:39:02.512Z,100840.84
2022-10-15T07:41:31.022Z,100847.00
2022-10-15T07:43:57.961Z,100842.38
2022-10-15T07:46:24.946Z,100846.75
2022-10-15T07:48:55.943Z,100845.50
2022-10-15T07:51:22.887Z,100845.63
2022-10-15T07:53:49.866Z,100862.81
2022-10-15T07:56:16.978Z,100854.41
2022-10-15T07:58:51.431Z,100843.59
2022-10-15T08:01:20.277Z,100856.16
2022-10-15T08:03:48.005Z,100860.31
2022-10-15T08:06:15.292Z,100856.53
2022-10-15T08:08:42.198Z,100866.31
2022-10-15T08:11:11.778Z,100859.34
2022-10-15T08:13:41.427Z,100858.94
2022-10-15T08:16:09.819Z,100857.19
2022-10-15T08:18:37.770Z,100864.06
2022-10-15T08:21:06.839Z,100864.44
2022-10-15T08:23:34.922Z,100865.38
2022-10-15T08:26:02.300Z,100867.53
2022-10-15T08:28:30.135Z,100871.81
2022-10-15T08:31:04.574Z,100868.56
2022-10-15T08:33:34.574Z,100874.31
2022-10-15T08:36:01.536Z,100874.44
2022-10-15T08:38:31.025Z,100869.31
2022-10-15T08:41:00.333Z,100862.75
2022-10-15T08:43:38.139Z,100861.09
2022-10-15T08:46:11.985Z,100866.56
2022-10-15T08:48:51.158Z,100869.66
2022-10-15T08:51:21.814Z,100867.28
2022-10-15T08:54:03.905Z,100865.47
2022-10-15T08:56:34.929Z,100863.50
2022-10-15T08:59:31.835Z,100871.56
2022-10-15T09:02:04.064Z,100859.66
2022-10-15T09:04:34.858Z,100863.69
2022-10-15T09:07:13.236Z,100859.38
2022-10-15T09:09:49.612Z,100856.41
2022-10-15T09:12:46.202Z,100853.84
2022-10-15T09:15:17.388Z,100856.69
2022-10-15T09:17:47.858Z,100849.94
2022-10-15T09:20:26.848Z,100858.78
2022-10-15T09:22:54.362Z,100851.94
2022-10-15T09:25:26.429Z,100850.00
2022-10-15T09:28:09.499Z,100854.75
2022-10-15T09:30:51.184Z,100858.09
2022-10-15T09:33:27.279Z,100861.41
2022-10-15T09:36:04.851Z,100857.88
2022-10-15T09:38:46.969Z,100860.94
2022-10-15T09:41:47.374Z,100860.19
2022-10-15T09:44:17.400Z,100860.06
2022-10-15T09:46:50.735Z,100864.00
2022-10-15T09:49:23.998Z,100864.50
2022-10-15T09:52:04.708Z,100872.47
2022-10-15T09:54:40.625Z,100866.22
2022-10-15T09:57:10.432Z,100865.69
2022-10-15T09:59:37.445Z,100868.69
2022-10-15T10:02:19.732Z,100857.22
2022-10-15T10:04:46.783Z,100863.16
2022-10-15T10:07:32.458Z,100864.22
2022-10-15T10:10:27.107Z,100867.44
2022-10-15T10:12:56.186Z,100863.63
2022-10-15T10:15:34.545Z,100863.09
2022-10-15T10:18:02.430Z,100867.00
2022-10-15T10:20:32.040Z,100858.00
2022-10-15T10:23:01.953Z,100859.94
2022-10-15T10:25:46.893Z,100861.72
2022-10-15T10:28:25.486Z,100866.41
2022-10-15T10:30:58.547Z,100871.91
2022-10-15T10:33:42.483Z,100864.44
2022-10-15T10:36:30.880Z,100864.81
2022-10-15T10:39:15.732Z,100872.34
2022-10-15T10:41:57.580Z,100873.16
2022-10-15T10:44:34.214Z,100871.59
2022-10-15T10:47:08.094Z,100869.38
2022-10-15T10:49:41.027Z,100864.59
2022-10-15T10:52:32.313Z,100862.59
2022-10-15T10:55:05.235Z,100863.72
2022-10-15T10:57:43.308Z,100857.91
2022-10-15T11:00:33.780Z,100863.41
2022-10-15T11:03:01.225Z,100860.63
2022-10-15T11:05:34.161Z,100859.94
2022-10-15T11:08:08.569Z,100863.81
2022-10-15T11:10:46.380Z,100857.91
2022-10-15T11:13:39.220Z,100863.63
2022-10-15T11:16:10.023Z,100862.66
2022-10-15T11:18:51.255Z,100855.47
2022-10-15T11:21:53.865Z,100857.31
2022-10-15T11:24:49.129Z,100859.34
2022-10-15T11:27:48.493Z,100852.50
2022-10-15T11:30:39.933Z,100853.97
2022-10-15T11:33:08.443Z,100853.44
2022-10-15T11:35:53.422Z,100860.03
2022-10-15T11:38:44.115Z,100860.97
2022-10-15T11:42:02.033Z,100852.31
2022-10-15T11:44:55.442Z,100849.59
2022-10-15T11:47:46.979Z,100853.38
2022-10-15T11:50:41.013Z,100853.63
2022-10-15T11:53:26.316Z,100851.09
2022-10-15T11:56:34.982Z,100855.84
2022-10-15T11:59:37.856Z,100847.88
2022-10-15T12:02:18.038Z,100858.19
2022-10-15T12:04:48.654Z,100845.06
2022-10-15T12:07:41.417Z,100850.41
2022-10-15T12:10:13.139Z,100848.47
2022-10-15T12:13:06.409Z,100844.19
2022-10-15T12:15:45.127Z,100848.50
2022-10-15T12:18:18.390Z,100845.41
2022-10-15T12:20:46.436Z,100837.38
2022-10-15T12:23:39.181Z,100848.28
2022-10-15T12:26:26.170Z,100845.06
2022-10-15T12:28:58.397Z,100849.91
2022-10-15T12:31:48.438Z,100848.47
2022-10-15T12:34:41.267Z,100839.78
2022-10-15T12:37:17.863Z,100837.72
2022-10-15T12:39:52.486Z,100845.47
2022-10-15T12:42:40.151Z,100846.47
2022-10-15T12:45:21.003Z,100845.44
2022-10-15T12:47:55.105Z,100831.91
2022-10-15T12:50:23.474Z,100842.25
2022-10-15T12:53:15.347Z,100837.28
2022-10-15T12:55:42.276Z,100845.25
2022-10-15T12:58:42.408Z,100837.84
2022-10-15T13:01:15.559Z,100839.66
2022-10-15T13:04:01.448Z,100843.19
2022-10-15T13:06:43.970Z,100841.75
2022-10-15T13:09:30.595Z,100844.13
2022-10-15T13:12:00.253Z,100838.06
2022-10-15T13:14:49.748Z,100842.72
2022-10-15T13:17:19.591Z,100846.53
2022-10-15T13:19:53.259Z,100838.19
2022-10-15T13:22:23.881Z,100841.97
2022-10-15T13:24:51.449Z,100845.81
2022-10-15T13:27:33.176Z,100840.69
2022-10-15T13:30:05.466Z,100845.09
2022-10-15T13:32:52.268Z,100836.81
2022-10-15T13:35:22.133Z,100835.63
2022-10-15T13:37:49.533Z,100844.19
2022-10-15T13:40:24.095Z,100842.56
2022-10-15T13:43:02.796Z,100842.78
2022-10-15T13:45:30.539Z,100833.00
2022-10-15T13:47:57.618Z,100838.72
2022-10-15T13:50:36.324Z,100843.28
2022-10-15T13:53:42.418Z,100842.91
2022-10-15T13:56:25.253Z,100853.00
2022-10-15T13:58:53.943Z,100841.13
2022-10-15T14:01:23.260Z,100854.81
2022-10-15T14:03:51.475Z,100861.78
2022-10-15T14:06:33.709Z,100858.47
2022-10-15T14:09:27.093Z,100860.13
2022-10-15T14:11:57.944Z,100855.84
2022-10-15T14:14:46.970Z,100861.06
2022-10-15T14:17:23.337Z,100864.38
2022-10-15T14:20:25.858Z,100862.44
2022-10-15T14:22:49.687Z,100862.41
2022-10-15T14:25:25.597Z,100869.03
2022-10-15T14:27:53.054Z,100870.44
2022-10-15T14:30:33.179Z,100866.81
2022-10-15T14:33:00.312Z,100870.28
2022-10-15T14:35:36.632Z,100863.72
2022-10-15T14:38:26.079Z,100868.34
2022-10-15T14:41:07.933Z,100866.91
2022-10-15T14:43:38.467Z,100868.63
2022-10-15T14:46:11.666Z,100870.50
2022-10-15T14:48:40.787Z,100880.44
2022-10-15T14:51:15.589Z,100883.38
2022-10-15T14:53:46.930Z,100869.72
2022-10-15T14:56:34.180Z,100880.59
2022-10-15T14:59:02.217Z,100880.72
2022-10-15T15:01:31.855Z,100892.19
2022-10-15T15:03:58.850Z,100885.31
2022-10-15T15:06:25.828Z,100886.47
2022-10-15T15:08:52.963Z,100878.94
2022-10-15T15:11:24.294Z,100891.69
2022-10-15T15:13:52.360Z,100897.50
2022-10-15T15:16:19.670Z,100897.28
2022-10-15T15:18:49.074Z,100897.41
2022-10-15T15:21:21.520Z,100896.09
2022-10-15T15:23:49.030Z,100898.25
2022-10-15T15:26:15.973Z,100897.13
2022-10-15T15:28:42.941Z,100899.75
2022-10-15T15:31:17.170Z,100907.78
2022-10-15T15:33:44.348Z,100912.19
2022-10-15T15:36:19.100Z,100908.00
2022-10-15T15:38:50.808Z,100899.66
2022-10-15T15:41:19.696Z,100895.28
2022-10-15T15:43:47.272Z,100905.72
2022-10-15T15:46:14.735Z,100908.53
2022-10-15T15:48:41.924Z,100905.19
2022-10-15T15:51:22.041Z,100914.88
2022-10-15T15:53:49.278Z,100908.22
2022-10-15T15:56:16.395Z,100907.59
2022-10-15T15:58:43.786Z,100902.59
2022-10-15T16:01:10.758Z,100915.41
2022-10-15T16:03:38.262Z,100905.59
2022-10-15T16:06:07.228Z,100912.91
2022-10-15T16:08:35.548Z,100919.03
2022-10-15T16:11:05.191Z,100919.25
2022-10-15T16:13:32.726Z,100914.56
2022-10-15T16:15:59.799Z,100908.19
2022-10-15T16:18:26.696Z,100912.56
2022-10-15T16:20:53.857Z,100915.34
2022-10-15T16:23:20.764Z,100907.94
2022-10-15T16:25:47.653Z,100909.94
2022-10-15T16:28:14.852Z,100907.31
2022-10-15T16:30:41.895Z,100905.03
2022-10-15T16:35:40.731Z,100907.53
2022-10-15T16:38:08.919Z,100907.53
2022-10-15T16:40:35.946Z,100902.41
2022-10-15T16:43:03.110Z,100912.94
2022-10-15T16:45:30.140Z,100918.34
2022-10-15T16:47:57.242Z,100911.69
2022-10-15T16:50:24.193Z,100913.53
2022-10-15T16:52:51.137Z,100909.38
2022-10-15T16:55:18.185Z,100922.28
2022-10-15T16:57:45.220Z,100919.03
2022-10-15T17:00:12.570Z,100912.56
2022-10-15T17:02:39.656Z,100919.34
2022-10-15T17:05:07.230Z,100921.84
2022-10-15T17:07:34.258Z,100927.16
2022-10-15T17:10:01.782Z,100924.53
2022-10-15T17:12:30.322Z,100927.28
2022-10-15T17:14:57.349Z,100928.78
2022-10-15T17:17:24.357Z,100923.03
2022-10-15T17:19:51.365Z,100924.78
2022-10-15T17:22:18.327Z,100925.13
2022-10-15T17:24:45.297Z,100926.97
2022-10-15T17:27:12.723Z,100932.34
2022-10-15T17:29:42.546Z,100940.25
2022-10-15T17:32:09.462Z,100928.59
2022-10-15T17:34:37.171Z,100933.88
2022-10-15T17:37:04.339Z,100944.28
2022-10-15T17:39:31.325Z,100946.13
2022-10-15T17:41:58.397Z,100948.97
2022-10-15T17:44:25.338Z,100944.97
2022-10-15T17:46:52.946Z,100951.00
2022-10-15T17:49:26.306Z,100948.84
2022-10-15T17:51:53.310Z,100956.66
2022-10-15T17:54:20.294Z,100956.75
2022-10-15T17:56:48.695Z,100961.13
2022-10-15T17:59:15.924Z,100961.13
2022-10-15T18:02:00.563Z,100968.84
2022-10-15T18:04:30.453Z,100953.63
2022-10-15T18:06:57.546Z,100966.97
2022-10-15T18:09:25.895Z,100968.75
2022-10-15T18:11:57.562Z,100970.16
2022-10-15T18:14:31.618Z,100979.50
2022-10-15T18:16:58.978Z,100970.25
2022-10-15T18:19:26.879Z,100980.66
2022-10-15T18:21:55.573Z,100979.88
2022-10-15T18:24:23.752Z,100981.75
2022-10-15T18:26:51.610Z,100985.28
2022-10-15T18:29:19.491Z,100983.81
2022-10-15T18:31:47.388Z,100987.44
2022-10-15T18:34:14.427Z,100992.00
2022-10-15T18:36:43.636Z,100988.66
2022-10-15T18:39:11.343Z,100984.66
2022-10-15T18:41:40.196Z,100992.28
2022-10-15T18:44:13.154Z,100970.44
2022-10-15T18:46:42.289Z,100993.28
2022-10-15T18:49:09.569Z,100990.88
2022-10-15T18:51:37.106Z,100991.03
2022-10-15T18:54:04.674Z,101000.63
2022-10-15T18:56:32.097Z,100994.03
2022-10-15T18:58:59.077Z,100990.69
2022-10-15T19:01:29.565Z,100999.34
2022-10-15T19:03:58.854Z,100994.22
2022-10-15T19:06:29.424Z,101007.31
2022-10-15T19:08:58.028Z,101012.53
2022-10-15T19:11:30.350Z,101009.81
2022-10-15T19:14:00.567Z,100993.25
2022-10-15T19:16:28.514Z,101008.31
2022-10-15T19:19:03.623Z,101013.72
2022-10-15T19:21:32.403Z,101017.31
2022-10-15T19:24:00.149Z,101013.88
2022-10-15T19:26:28.560Z,101016.66
2022-10-15T19:28:57.392Z,101007.38
2022-10-15T19:31:29.903Z,101017.66
2022-10-15T19:34:00.545Z,101024.81
2022-10-15T19:36:35.155Z,101018.16
2022-10-15T19:39:08.112Z,101040.50
2022-10-15T19:41:39.800Z,101031.16
2022-10-15T19:44:08.283Z,101039.78
2022-10-15T19:46:38.818Z,101034.84
2022-10-15T19:49:07.490Z,101042.53
2022-10-15T19:51:35.110Z,101037.66
2022-10-15T19:54:02.053Z,101043.69
2022-10-15T19:56:33.114Z,101043.78
2022-10-15T19:59:04.632Z,101046.47
2022-10-15T20:01:31.876Z,101045.72
2022-10-15T20:04:03.301Z,101043.31
2022-10-15T20:06:33.886Z,101050.34
2022-10-15T20:09:02.262Z,101050.34
2022-10-15T20:11:29.364Z,101052.38
2022-10-15T20:13:56.534Z,101052.22
2022-10-15T20:16:24.792Z,101051.44
2022-10-15T20:18:52.681Z,101051.53
2022-10-15T20:21:19.768Z,101053.31
2022-10-15T20:23:47.917Z,101057.75
2022-10-15T20:26:16.210Z,101057.75
2022-10-15T20:28:45.361Z,101054.38
2022-10-15T20:31:20.109Z,101049.44
2022-10-15T20:33:49.022Z,101065.81
2022-10-15T20:36:22.617Z,101056.41
2022-10-15T20:38:51.348Z,101065.13
2022-10-15T20:41:18.937Z,101070.44
2022-10-15T20:43:47.251Z,101074.19
2022-10-15T20:46:21.596Z,101067.22
2022-10-15T20:48:48.960Z,101087.94
2022-10-15T20:51:18.668Z,101083.69
2022-10-15T20:53:46.368Z,101081.91
2022-10-15T20:56:13.830Z,101092.38
2022-10-15T20:58:40.891Z,101089.69
2022-10-15T21:01:08.097Z,101084.69
2022-10-15T21:03:35.243Z,101088.97
2022-10-15T21:06:02.256Z,101088.19
2022-10-15T21:08:29.286Z,101083.06
2022-10-15T21:11:06.952Z,101082.16
2022-10-15T21:13:34.555Z,101084.84
2022-10-15T21:16:02.982Z,101090.13
2022-10-15T21:18:29.976Z,101084.28
2022-10-15T21:21:08.411Z,101098.00
2022-10-15T21:23:36.872Z,101095.50
2022-10-15T21:26:08.540Z,101091.13
2022-10-15T21:28:36.349Z,101098.09
2022-10-15T21:31:10.022Z,101093.78
2022-10-15T21:33:37.687Z,101094.75
2022-10-15T21:36:15.934Z,101091.28
2022-10-15T21:38:43.016Z,101090.53
2022-10-15T21:41:10.118Z,101092.22
2022-10-15T21:43:37.235Z,101093.88
2022-10-15T21:46:14.410Z,101106.03
2022-10-15T21:48:42.873Z,101101.59
2022-10-15T21:51:18.919Z,101099.78
2022-10-15T21:53:46.797Z,101104.19
2022-10-15T21:56:14.162Z,101105.13
2022-10-15T21:58:41.614Z,101106.03
2022-10-15T22:01:13.578Z,101107.91
2022-10-15T22:03:43.379Z,101106.94
2022-10-15T22:06:11.224Z,101113.09
2022-10-15T22:08:38.545Z,101109.75
2022-10-15T22:11:13.381Z,101108.97
2022-10-15T22:13:43.912Z,101103.13
2022-10-15T22:16:11.618Z,101113.50
2022-10-15T22:18:39.397Z,101111.00
2022-10-15T22:21:16.551Z,101115.44
2022-10-15T22:23:52.550Z,101118.13
2022-10-15T22:26:21.673Z,101116.59
2022-10-15T22:28:48.664Z,101120.19
2022-10-15T22:31:17.285Z,101120.28
2022-10-15T22:33:45.878Z,101126.38
2022-10-15T22:36:19.075Z,101121.28
2022-10-15T22:38:48.566Z,101116.25
2022-10-15T22:41:16.481Z,101120.63
2022-10-15T22:43:43.513Z,101111.22
2022-10-15T22:46:11.003Z,101122.50
2022-10-15T22:48:40.515Z,101121.78
2022-10-15T22:51:09.762Z,101125.28
2022-10-15T22:53:36.842Z,101126.38
2022-10-15T22:56:11.098Z,101123.78
2022-10-15T22:58:38.153Z,101125.09
2022-10-15T23:01:13.473Z,101127.59
2022-10-15T23:03:43.347Z,101133.66
2022-10-15T23:06:10.846Z,101129.38
2022-10-15T23:08:38.579Z,101134.47
2022-10-15T23:11:09.378Z,101129.44
2022-10-15T23:13:38.339Z,101138.91
2022-10-15T23:16:20.129Z,101144.84
2022-10-15T23:18:51.530Z,101142.34
2022-10-15T23:21:25.564Z,101140.81
2022-10-15T23:23:52.515Z,101134.94
2022-10-15T23:26:19.509Z,101140.16
2022-10-15T23:28:51.663Z,101134.19
2022-10-15T23:31:20.821Z,101143.81
2022-10-15T23:33:47.816Z,101147.50
2022-10-15T23:36:15.264Z,101145.88
2022-10-15T23:38:42.271Z,101150.31
2022-10-15T23:41:10.636Z,101153.81
2022-10-15T23:43:38.256Z,101144.47
2022-10-15T23:46:05.337Z,101152.31
2022-10-15T23:48:32.399Z,101149.88
2022-10-15T23:51:02.587Z,101151.63
2022-10-15T23:53:33.088Z,101148.41
2022-10-15T23:56:02.965Z,101150.09
2022-10-15T23:58:32.388Z,101157.09
